createdAt,value
2024-01-05T00:01:46.212Z,0.20
2024-01-05T00:04:50.649Z,0.20
2024-01-05T00:07:58.350Z,0.20
2024-01-05T00:11:00.508Z,0.20
2024-01-05T00:14:04.104Z,0.00
2024-01-05T00:17:06.903Z,0.30
2024-01-05T00:20:12.264Z,0.15
2024-01-05T00:23:17.504Z,0.25
2024-01-05T00:26:21.106Z,0.20
2024-01-05T00:29:24.385Z,0.30
2024-01-05T00:32:26.946Z,0.20
2024-01-05T00:35:35.384Z,0.10
2024-01-05T00:38:49.322Z,0.20
2024-01-05T00:41:51.906Z,0.53
2024-01-05T00:44:57.624Z,0.30
2024-01-05T00:48:00.829Z,0.50
2024-01-05T00:51:11.569Z,0.20
2024-01-05T00:54:14.068Z,0.30
2024-01-05T00:57:18.074Z,0.20
2024-01-05T01:00:21.166Z,0.33
2024-01-05T01:03:24.154Z,0.52
2024-01-05T01:06:28.135Z,0.22
2024-01-05T01:09:32.151Z,0.20
2024-01-05T01:12:34.464Z,0.20
2024-01-05T01:15:42.980Z,0.20
2024-01-05T01:18:48.934Z,0.55
2024-01-05T01:21:54.904Z,0.30
2024-01-05T01:24:57.345Z,0.32
2024-01-05T01:27:59.835Z,0.30
2024-01-05T01:31:02.304Z,0.37
2024-01-05T01:34:05.763Z,0.20
2024-01-05T01:37:08.188Z,0.30
2024-01-05T01:40:11.945Z,0.20
2024-01-05T01:43:26.727Z,0.40
2024-01-05T01:46:30.371Z,0.30
2024-01-05T01:49:33.399Z,0.30
2024-01-05T01:52:38.086Z,0.22
2024-01-05T01:55:42.875Z,0.98
2024-01-05T01:58:46.209Z,0.30
2024-01-05T02:01:53.452Z,0.30
2024-01-05T02:04:57.261Z,0.15
2024-01-05T02:08:01.836Z,0.30
2024-01-05T02:11:05.199Z,0.35
2024-01-05T02:14:07.871Z,0.30
2024-01-05T02:17:32.615Z,0.50
2024-01-05T02:20:36.603Z,0.20
2024-01-05T02:23:38.699Z,0.28
2024-01-05T02:26:42.543Z,0.30
2024-01-05T02:29:45.876Z,0.30
2024-01-05T02:32:48.392Z,0.63
2024-01-05T02:35:51.520Z,0.40
2024-01-05T02:38:53.760Z,1.20
2024-01-05T02:41:57.287Z,0.10
2024-01-05T02:44:59.695Z,0.30
2024-01-05T02:48:02.744Z,0.20
2024-01-05T02:51:05.403Z,0.30
2024-01-05T02:54:07.846Z,0.22
2024-01-05T02:57:10.251Z,0.47
2024-01-05T03:00:13.133Z,0.47
2024-01-05T03:03:19.285Z,0.30
2024-01-05T03:06:22.420Z,0.20
2024-01-05T03:09:26.989Z,0.32
2024-01-05T03:12:30.134Z,0.22
2024-01-05T03:15:33.817Z,0.20
2024-01-05T03:18:41.235Z,0.17
2024-01-05T03:21:43.932Z,0.22
2024-01-05T03:24:46.720Z,0.40
2024-01-05T03:27:49.268Z,0.30
2024-01-05T03:30:51.501Z,0.47
2024-01-05T03:33:58.064Z,0.20
2024-01-05T03:37:03.510Z,0.40
2024-01-05T03:40:06.594Z,0.20
2024-01-05T03:43:11.080Z,0.32
2024-01-05T03:46:15.923Z,0.40
2024-01-05T03:49:21.442Z,0.67
2024-01-05T03:52:23.818Z,0.40
2024-01-05T03:55:27.039Z,0.40
2024-01-05T03:58:29.856Z,0.30
2024-01-05T04:01:32.090Z,0.90
2024-01-05T04:04:34.535Z,0.30
2024-01-05T04:07:36.929Z,0.50
2024-01-05T04:10:39.601Z,0.40
2024-01-05T04:13:43.020Z,0.60
2024-01-05T04:16:46.256Z,0.60
2024-01-05T04:19:48.696Z,1.13
2024-01-05T04:22:50.851Z,1.17
2024-01-05T04:25:53.434Z,1.02
2024-01-05T04:28:57.340Z,1.50
2024-01-05T04:32:02.563Z,1.17
2024-01-05T04:35:05.121Z,2.60
2024-01-05T04:38:07.364Z,3.38
2024-01-05T04:41:13.594Z,1.95
2024-01-05T04:44:15.798Z,2.30
2024-01-05T04:47:17.949Z,1.73
2024-01-05T04:50:20.734Z,1.67
2024-01-05T04:53:22.941Z,1.50
2024-01-05T04:56:25.585Z,1.38
2024-01-05T04:59:28.891Z,1.45
2024-01-05T05:02:31.039Z,1.10
2024-01-05T05:05:33.062Z,2.60
2024-01-05T05:08:35.050Z,1.02
2024-01-05T05:11:37.265Z,0.90
2024-01-05T05:14:41.293Z,1.27
2024-01-05T05:17:43.869Z,0.93
2024-01-05T05:20:46.286Z,0.93
2024-01-05T05:23:48.376Z,1.08
2024-01-05T05:26:50.748Z,1.20
2024-01-05T05:29:52.704Z,0.95
2024-01-05T05:32:56.024Z,1.20
2024-01-05T05:36:01.103Z,1.33
2024-01-05T05:39:04.001Z,1.08
2024-01-05T05:42:06.570Z,0.77
2024-01-05T05:45:09.415Z,1.17
2024-01-05T05:48:16.709Z,1.20
2024-01-05T05:51:30.788Z,1.30
2024-01-05T05:54:33.864Z,3.20
2024-01-05T05:57:38.614Z,1.60
2024-01-05T06:00:44.828Z,1.25
2024-01-05T06:03:48.725Z,2.53
2024-01-05T06:06:51.357Z,6.50
2024-01-05T06:09:53.553Z,5.85
2024-01-05T06:12:55.717Z,2.33
2024-01-05T06:16:00.842Z,2.47
2024-01-05T06:19:05.901Z,3.07
2024-01-05T06:22:12.691Z,2.83
2024-01-05T06:25:15.817Z,3.15
2024-01-05T06:28:18.227Z,3.40
2024-01-05T06:31:27.482Z,3.17
2024-01-05T06:34:30.384Z,3.13
2024-01-05T06:37:39.169Z,3.10
2024-01-05T06:40:41.569Z,3.10
2024-01-05T06:43:45.624Z,3.28
2024-01-05T06:46:48.023Z,2.78
2024-01-05T06:49:50.771Z,4.53
2024-01-05T06:52:56.372Z,3.50
2024-01-05T06:56:03.243Z,3.70
2024-01-05T06:59:08.586Z,6.35
2024-01-05T07:02:14.368Z,3.35
2024-01-05T07:05:20.765Z,3.57
2024-01-05T07:08:28.813Z,3.83
2024-01-05T07:11:34.772Z,3.20
2024-01-05T07:14:40.273Z,4.90
2024-01-05T07:17:45.632Z,3.00
2024-01-05T07:20:48.176Z,4.10
2024-01-05T07:23:50.896Z,4.20
2024-01-05T07:26:53.672Z,5.30
2024-01-05T07:29:57.088Z,4.97
2024-01-05T07:33:00.121Z,4.32
2024-01-05T07:36:06.818Z,5.73
2024-01-05T07:39:13.909Z,6.23
2024-01-05T07:42:19.402Z,3.95
2024-01-05T07:45:21.590Z,4.85
2024-01-05T07:48:24.631Z,5.10
2024-01-05T07:51:27.892Z,5.53
2024-01-05T07:54:30.279Z,5.13
2024-01-05T07:57:32.633Z,6.45
2024-01-05T08:00:35.178Z,6.10
2024-01-05T08:03:38.448Z,7.95
2024-01-05T08:06:43.420Z,8.73
2024-01-05T08:09:45.637Z,8.53
2024-01-05T08:12:47.895Z,7.63
2024-01-05T08:15:51.453Z,7.30
2024-01-05T08:18:53.613Z,6.43
2024-01-05T08:21:55.956Z,7.07
2024-01-05T08:25:01.100Z,5.07
2024-01-05T08:28:03.722Z,5.75
2024-01-05T08:31:07.076Z,4.68
2024-01-05T08:34:09.416Z,3.90
2024-01-05T08:37:11.747Z,4.30
2024-01-05T08:40:15.228Z,3.03
2024-01-05T08:43:18.575Z,4.25
2024-01-05T08:46:21.481Z,4.15
2024-01-05T08:49:25.396Z,3.90
2024-01-05T08:52:30.600Z,3.97
2024-01-05T08:55:36.447Z,3.87
2024-01-05T08:58:38.794Z,4.75
2024-01-05T09:01:41.290Z,7.45
2024-01-05T09:04:43.444Z,6.07
2024-01-05T09:07:45.669Z,6.23
2024-01-05T09:10:49.883Z,7.00
2024-01-05T09:13:52.382Z,7.90
2024-01-05T09:17:02.444Z,7.53
2024-01-05T09:20:05.406Z,6.95
2024-01-05T09:23:10.263Z,6.33
2024-01-05T09:26:15.950Z,6.33
2024-01-05T09:29:18.289Z,7.32
2024-01-05T09:32:23.029Z,5.40
2024-01-05T09:35:27.335Z,5.80
2024-01-05T09:38:29.971Z,6.30
2024-01-05T09:41:32.512Z,6.70
2024-01-05T09:44:36.736Z,6.40
2024-01-05T09:47:41.057Z,6.03
2024-01-05T09:50:47.099Z,7.40
2024-01-05T09:53:51.554Z,6.23
2024-01-05T09:56:54.276Z,5.33
2024-01-05T09:59:57.706Z,6.80
2024-01-05T10:03:05.394Z,6.20
2024-01-05T10:06:07.612Z,7.25
2024-01-05T10:09:11.550Z,7.00
2024-01-05T10:12:14.599Z,6.40
2024-01-05T10:15:17.388Z,6.97
2024-01-05T10:18:24.385Z,5.78
2024-01-05T10:21:28.402Z,5.40
2024-01-05T10:24:31.660Z,5.20
2024-01-05T10:27:34.004Z,4.27
2024-01-05T10:30:37.546Z,5.32
2024-01-05T10:33:54.374Z,4.15
2024-01-05T10:37:16.622Z,4.60
2024-01-05T10:40:19.624Z,3.57
2024-01-05T10:43:24.127Z,4.77
2024-01-05T10:46:29.812Z,3.55
2024-01-05T10:49:33.176Z,3.50
2024-01-05T10:52:39.549Z,3.38
2024-01-05T10:55:44.181Z,3.50
2024-01-05T10:58:55.484Z,3.23
2024-01-05T11:01:59.564Z,3.03
2024-01-05T11:05:09.744Z,3.50
2024-01-05T11:08:30.583Z,2.33
2024-01-05T11:11:55.961Z,2.37
2024-01-05T11:15:19.121Z,1.60
2024-01-05T11:18:28.423Z,1.40
2024-01-05T11:21:52.671Z,1.50
2024-01-05T11:24:56.916Z,1.20
2024-01-05T11:27:59.982Z,1.60
2024-01-05T11:31:04.244Z,1.37
2024-01-05T11:34:08.734Z,0.90
2024-01-05T11:37:12.583Z,1.30
2024-01-05T11:40:31.519Z,1.48
2024-01-05T11:43:34.995Z,1.50
2024-01-05T11:46:58.414Z,1.23
2024-01-05T11:50:29.416Z,1.30
2024-01-05T11:53:34.357Z,1.33
2024-01-05T11:56:36.616Z,2.17
2024-01-05T11:59:47.927Z,1.90
2024-01-05T12:02:50.833Z,1.70
2024-01-05T12:05:56.333Z,1.63
2024-01-05T12:08:59.177Z,2.40
2024-01-05T12:12:18.236Z,2.20
2024-01-05T12:15:22.128Z,2.10
2024-01-05T12:18:34.856Z,1.73
2024-01-05T12:21:40.494Z,2.95
2024-01-05T12:24:42.596Z,3.10
2024-01-05T12:27:44.795Z,3.13
2024-01-05T12:30:53.625Z,3.57
2024-01-05T12:33:56.575Z,3.53
2024-01-05T12:37:08.822Z,4.00
2024-01-05T12:40:12.837Z,3.95
2024-01-05T12:43:14.819Z,4.45
2024-01-05T12:46:18.503Z,4.40
2024-01-05T12:49:21.880Z,4.47
2024-01-05T12:52:36.685Z,5.65
2024-01-05T12:55:39.163Z,5.00
2024-01-05T12:58:43.080Z,6.25
2024-01-05T13:01:45.202Z,7.87
2024-01-05T13:04:47.337Z,6.10
2024-01-05T13:07:49.478Z,5.90
2024-01-05T13:10:51.781Z,6.07
2024-01-05T13:13:54.156Z,6.47
2024-01-05T13:16:56.732Z,7.00
2024-01-05T13:20:01.489Z,7.60
2024-01-05T13:23:05.336Z,7.28
2024-01-05T13:26:07.420Z,7.60
2024-01-05T13:29:10.454Z,10.50
2024-01-05T13:32:13.063Z,7.90
2024-01-05T13:35:15.768Z,8.20
2024-01-05T13:38:19.395Z,9.32
2024-01-05T13:41:22.003Z,9.50
2024-01-05T13:44:25.235Z,9.95
2024-01-05T13:47:37.939Z,9.17
2024-01-05T13:50:40.286Z,10.90
2024-01-05T13:53:42.346Z,9.93
2024-01-05T13:56:44.369Z,9.48
2024-01-05T13:59:46.965Z,10.23
2024-01-05T14:02:50.248Z,9.83
2024-01-05T14:05:52.513Z,9.80
2024-01-05T14:08:54.516Z,10.20
2024-01-05T14:11:56.703Z,9.43
2024-01-05T14:14:58.939Z,10.13
2024-01-05T14:18:07.189Z,9.10
2024-01-05T14:21:16.650Z,11.07
2024-01-05T14:24:21.496Z,11.30
2024-01-05T14:27:28.013Z,10.95
2024-01-05T14:30:30.796Z,10.88
2024-01-05T14:33:36.422Z,13.00
2024-01-05T14:36:41.352Z,11.13
2024-01-05T14:39:47.806Z,10.55
2024-01-05T14:42:50.164Z,11.05
2024-01-05T14:45:52.514Z,10.70
2024-01-05T14:48:55.525Z,10.57
2024-01-05T14:52:01.893Z,10.53
2024-01-05T14:55:05.108Z,9.82
2024-01-05T14:58:08.251Z,9.77
2024-01-05T15:01:10.816Z,9.75
2024-01-05T15:04:14.061Z,9.83
2024-01-05T15:07:16.390Z,10.63
2024-01-05T15:10:18.719Z,10.75
2024-01-05T15:13:20.982Z,10.75
2024-01-05T15:16:23.445Z,11.85
2024-01-05T15:19:27.121Z,11.27
2024-01-05T15:22:29.279Z,10.37
2024-01-05T15:25:31.439Z,9.73
2024-01-05T15:28:36.429Z,9.57
2024-01-05T15:31:39.258Z,10.32
2024-01-05T15:34:44.818Z,10.83
2024-01-05T15:37:47.215Z,9.67
2024-01-05T15:40:49.572Z,10.82
2024-01-05T15:43:57.144Z,9.90
2024-01-05T15:46:59.720Z,9.88
2024-01-05T15:50:01.928Z,10.13
2024-01-05T15:53:04.647Z,10.10
2024-01-05T15:56:08.220Z,10.55
2024-01-05T15:59:13.585Z,10.60
2024-01-05T16:02:16.585Z,9.98
2024-01-05T16:05:19.948Z,10.93
2024-01-05T16:08:24.104Z,10.20
2024-01-05T16:11:32.001Z,11.32
2024-01-05T16:14:46.930Z,12.00
2024-01-05T16:17:49.172Z,11.13
2024-01-05T16:20:52.157Z,10.90
2024-01-05T16:23:56.568Z,11.67
2024-01-05T16:26:58.620Z,10.50
2024-01-05T16:30:00.957Z,11.35
2024-01-05T16:33:03.625Z,12.30
2024-01-05T16:36:07.517Z,11.57
2024-01-05T16:39:10.908Z,11.90
2024-01-05T16:42:15.436Z,12.15
2024-01-05T16:45:18.013Z,12.82
2024-01-05T16:48:20.551Z,11.73
2024-01-05T16:51:27.284Z,11.73
2024-01-05T16:54:31.265Z,12.27
2024-01-05T16:57:33.534Z,12.23
2024-01-05T17:00:36.438Z,12.68
2024-01-05T17:03:39.520Z,13.40
2024-01-05T17:06:43.717Z,13.60
2024-01-05T17:09:47.651Z,13.70
2024-01-05T17:12:50.740Z,12.77
2024-01-05T17:15:53.444Z,12.63
2024-01-05T17:19:00.749Z,13.45
2024-01-05T17:22:06.111Z,12.73
2024-01-05T17:25:09.740Z,13.90
2024-01-05T17:28:12.364Z,13.77
2024-01-05T17:31:14.982Z,13.30
2024-01-05T17:34:18.046Z,14.75
2024-01-05T17:37:20.454Z,14.20
2024-01-05T17:40:23.230Z,14.27
2024-01-05T17:43:25.692Z,14.52
2024-01-05T17:46:28.148Z,15.55
2024-01-05T17:49:30.822Z,15.63
2024-01-05T17:52:34.723Z,17.83
2024-01-05T17:55:38.398Z,16.47
2024-01-05T17:58:40.614Z,15.23
2024-01-05T18:01:45.869Z,15.75
2024-01-05T18:04:53.900Z,15.00
2024-01-05T18:07:57.552Z,15.67
2024-01-05T18:11:00.736Z,15.63
2024-01-05T18:14:04.928Z,16.23
2024-01-05T18:17:07.657Z,17.40
2024-01-05T18:20:12.055Z,15.25
2024-01-05T18:23:17.797Z,15.53
2024-01-05T18:26:24.571Z,17.20
2024-01-05T18:29:29.516Z,17.42
2024-01-05T18:32:32.467Z,15.55
2024-01-05T18:35:34.857Z,16.85
2024-01-05T18:38:37.151Z,15.83
2024-01-05T18:41:40.270Z,15.93
2024-01-05T18:44:43.241Z,15.82
2024-01-05T18:47:46.287Z,16.23
2024-01-05T18:50:51.598Z,16.15
2024-01-05T18:53:54.693Z,19.30
2024-01-05T18:56:56.991Z,16.37
2024-01-05T19:00:02.753Z,15.60
2024-01-05T19:03:06.018Z,13.75
2024-01-05T19:06:09.289Z,13.52
2024-01-05T19:09:15.655Z,12.80
2024-01-05T19:12:19.117Z,14.53
2024-01-05T19:15:22.145Z,13.15
2024-01-05T19:18:25.162Z,17.20
2024-01-05T19:21:28.137Z,15.55
2024-01-05T19:24:30.726Z,15.23
2024-01-05T19:27:33.965Z,15.10
2024-01-05T19:30:38.540Z,14.15
2024-01-05T19:33:41.037Z,15.77
2024-01-05T19:36:47.420Z,14.60
2024-01-05T19:39:53.762Z,14.77
2024-01-05T19:42:56.089Z,14.40
2024-01-05T19:45:58.548Z,13.30
2024-01-05T19:49:01.786Z,13.43
2024-01-05T19:52:06.672Z,13.80
2024-01-05T19:55:11.567Z,14.63
2024-01-05T19:58:14.943Z,15.17
2024-01-05T20:01:18.400Z,14.63
2024-01-05T20:04:21.103Z,13.90
2024-01-05T20:07:23.328Z,15.40
2024-01-05T20:10:25.898Z,14.60
2024-01-05T20:13:27.955Z,14.57
2024-01-05T20:16:34.265Z,14.57
2024-01-05T20:19:37.968Z,14.80
2024-01-05T20:22:41.580Z,14.32
2024-01-05T20:25:43.743Z,15.03
2024-01-05T20:28:47.828Z,15.40
2024-01-05T20:31:51.731Z,16.88
2024-01-05T20:34:54.176Z,16.20
2024-01-05T20:37:57.217Z,16.05
2024-01-05T20:40:59.771Z,15.57
2024-01-05T20:44:02.038Z,14.37
2024-01-05T20:47:05.000Z,14.43
2024-01-05T20:50:07.927Z,14.90
2024-01-05T20:53:12.017Z,15.13
2024-01-05T20:56:14.844Z,15.93
2024-01-05T20:59:17.565Z,15.93
2024-01-05T21:02:19.656Z,16.65
2024-01-05T21:05:21.764Z,16.08
2024-01-05T21:08:24.117Z,17.67
2024-01-05T21:11:26.277Z,15.93
2024-01-05T21:14:29.988Z,16.30
2024-01-05T21:17:32.473Z,17.10
2024-01-05T21:20:34.733Z,16.77
2024-01-05T21:23:36.832Z,16.60
2024-01-05T21:26:43.420Z,14.17
2024-01-05T21:29:46.251Z,14.70
2024-01-05T21:32:49.402Z,14.20
2024-01-05T21:35:52.515Z,14.95
2024-01-05T21:38:55.568Z,15.02
2024-01-05T21:41:58.366Z,14.50
2024-01-05T21:45:00.721Z,14.47
2024-01-05T21:48:06.211Z,14.68
2024-01-05T21:51:15.314Z,14.77
2024-01-05T21:54:19.759Z,17.23
2024-01-05T21:57:21.952Z,14.43
2024-01-05T22:00:24.569Z,13.93
2024-01-05T22:03:27.175Z,14.68
2024-01-05T22:06:35.389Z,14.77
2024-01-05T22:09:38.869Z,14.75
2024-01-05T22:12:41.245Z,14.77
2024-01-05T22:15:43.738Z,14.60
2024-01-05T22:18:47.192Z,14.25
2024-01-05T22:21:49.723Z,13.75
2024-01-05T22:24:54.279Z,14.93
2024-01-05T22:27:56.674Z,14.03
2024-01-05T22:30:59.034Z,14.77
2024-01-05T22:34:05.121Z,14.27
2024-01-05T22:37:07.970Z,14.32
2024-01-05T22:40:12.961Z,13.23
2024-01-05T22:43:18.198Z,13.50
2024-01-05T22:46:22.180Z,15.20
2024-01-05T22:49:24.827Z,15.00
2024-01-05T22:52:28.332Z,14.30
2024-01-05T22:55:30.719Z,14.45
2024-01-05T22:58:35.525Z,16.07
2024-01-05T23:01:39.228Z,15.00
2024-01-05T23:04:42.071Z,15.95
2024-01-05T23:07:44.556Z,15.02
2024-01-05T23:10:47.951Z,16.88
2024-01-05T23:13:51.914Z,16.67
2024-01-05T23:16:54.414Z,16.67
2024-01-05T23:19:57.065Z,17.05
2024-01-05T23:22:59.662Z,16.42
2024-01-05T23:26:02.054Z,16.42
2024-01-05T23:29:05.817Z,16.70
2024-01-05T23:32:08.568Z,16.00
2024-01-05T23:35:11.663Z,16.73
2024-01-05T23:38:14.235Z,17.00
2024-01-05T23:41:16.920Z,17.60
2024-01-05T23:44:19.808Z,18.27
2024-01-05T23:47:22.762Z,17.63
2024-01-05T23:50:25.340Z,18.13
2024-01-05T23:53:27.958Z,16.92
2024-01-05T23:56:30.213Z,17.05
2024-01-05T23:59:33.013Z,17.17
